Time;durP1;ratioP1;P1;durP2;ratioP2;P2;SDS_P1;SDS_P2;PMS_P1;PMS_P2;Temp;Humidity;BMP_temperature;BMP_pressure;BME280_temperature;BME280_humidity;BME280_pressure;Samples;Min_cycle;Max_cycle;Signal;HPM_P1;HPM_P2
2022/02/12 00:00:17;;;;;;;14.17;5.87;;;-1.20;99.90;;;;;;5034640;28;20236;-81
2022/02/12 00:02:43;;;;;;;11.65;5.00;;;-1.20;99.90;;;;;;5036037;28;20424;-82
2022/02/12 00:05:09;;;;;;;14.30;5.72;;;-1.20;99.90;;;;;;5034708;28;20707;-83
2022/02/12 00:07:36;;;;;;;11.50;5.53;;;-1.30;99.90;;;;;;5035943;28;20174;-83
2022/02/12 00:10:03;;;;;;;21.67;6.90;;;-1.30;99.90;;;;;;5035410;28;20564;-83
2022/02/12 00:12:29;;;;;;;11.18;5.30;;;-1.40;99.90;;;;;;5036106;28;20213;-82
2022/02/12 00:14:57;;;;;;;11.53;6.17;;;-1.30;99.90;;;;;;5034721;28;20248;-83
2022/02/12 00:17:23;;;;;;;11.38;6.18;;;-1.30;99.90;;;;;;5035801;28;20178;-83
2022/02/12 00:19:49;;;;;;;11.27;5.10;;;-1.30;99.90;;;;;;5035237;28;20627;-82
2022/02/12 00:22:15;;;;;;;12.00;5.28;;;-1.30;99.90;;;;;;5035760;28;20186;-85
2022/02/12 00:24:41;;;;;;;21.65;6.18;;;-1.40;99.90;;;;;;5035693;28;20171;-85
2022/02/12 00:27:06;;;;;;;9.10;5.10;;;-1.50;99.90;;;;;;5034346;28;20174;-81
2022/02/12 00:29:32;;;;;;;14.50;5.47;;;-1.50;99.90;;;;;;5034067;28;20210;-81
2022/02/12 00:31:58;;;;;;;10.00;5.50;;;-1.50;99.90;;;;;;5034373;28;20302;-82
2022/02/12 00:34:23;;;;;;;10.27;5.10;;;-1.50;99.90;;;;;;5034303;28;20270;-81
2022/02/12 00:36:49;;;;;;;15.67;6.67;;;-1.50;99.90;;;;;;5034209;28;20828;-85
2022/02/12 00:39:15;;;;;;;18.30;7.23;;;-1.50;99.90;;;;;;5034906;28;20444;-83
2022/02/12 00:41:40;;;;;;;10.87;5.70;;;-1.50;99.90;;;;;;5035410;28;20183;-83
2022/02/12 00:44:06;;;;;;;9.67;5.27;;;-1.60;99.90;;;;;;5034046;28;20187;-86
2022/02/12 00:46:32;;;;;;;8.83;4.93;;;-1.50;99.90;;;;;;5035213;28;20174;-84
2022/02/12 00:48:58;;;;;;;11.50;5.70;;;-1.50;99.90;;;;;;5034757;28;20186;-81
2022/02/12 00:51:23;;;;;;;11.10;5.83;;;-1.60;99.90;;;;;;5035088;28;20560;-82
2022/02/12 00:53:49;;;;;;;11.80;6.00;;;-1.70;99.90;;;;;;5035202;28;20693;-81
2022/02/12 00:56:14;;;;;;;9.20;5.13;;;-1.70;99.90;;;;;;5035119;28;20179;-85
2022/02/12 00:58:40;;;;;;;17.43;5.63;;;-1.60;99.90;;;;;;5032892;28;20190;-84
2022/02/12 01:01:06;;;;;;;9.37;4.70;;;-1.60;99.90;;;;;;5034846;28;20667;-80
2022/02/12 01:03:31;;;;;;;9.40;4.57;;;-1.70;99.90;;;;;;5035160;28;20175;-81
2022/02/12 01:05:57;;;;;;;14.97;5.97;;;-1.70;99.90;;;;;;5034929;28;20182;-81
2022/02/12 01:08:23;;;;;;;8.53;5.10;;;-1.80;99.90;;;;;;5034781;28;20179;-80
2022/02/12 01:10:49;;;;;;;12.73;5.28;;;-1.80;99.90;;;;;;5034427;28;20481;-84
2022/02/12 01:13:15;;;;;;;7.90;4.63;;;-1.90;99.90;;;;;;5034565;28;20182;-82
2022/02/12 01:15:40;;;;;;;10.87;6.20;;;-1.90;99.90;;;;;;5034724;28;20779;-83
2022/02/12 01:18:06;;;;;;;16.10;5.57;;;-1.90;99.90;;;;;;5034539;28;20410;-82
2022/02/12 01:20:34;;;;;;;12.23;4.93;;;-1.90;99.90;;;;;;5034243;28;20269;-82
2022/02/12 01:23:00;;;;;;;14.60;5.40;;;-2.00;99.90;;;;;;5034569;28;20175;-82
2022/02/12 01:25:26;;;;;;;12.20;4.85;;;-2.00;99.90;;;;;;5033145;28;20186;-82
2022/02/12 01:27:53;;;;;;;8.32;4.97;;;-2.00;99.90;;;;;;5034699;28;20178;-82
2022/02/12 01:30:19;;;;;;;6.05;4.18;;;-2.00;99.90;;;;;;5034004;28;20577;-82
2022/02/12 01:32:44;;;;;;;9.83;5.40;;;-2.00;99.90;;;;;;5034492;28;20175;-84
2022/02/12 01:35:10;;;;;;;12.20;5.13;;;-1.90;99.90;;;;;;5034415;28;20842;-82
2022/02/12 01:37:37;;;;;;;10.00;4.60;;;-2.00;99.90;;;;;;5033095;28;20199;-82
2022/02/12 01:40:04;;;;;;;8.82;4.63;;;-2.00;99.90;;;;;;5033911;28;20198;-82
2022/02/12 01:42:30;;;;;;;13.77;4.43;;;-1.90;99.90;;;;;;5034109;28;20521;-83
2022/02/12 01:44:56;;;;;;;13.43;4.97;;;-2.00;99.90;;;;;;5034152;28;20186;-80
2022/02/12 01:47:21;;;;;;;18.95;5.88;;;-2.00;99.90;;;;;;5034005;28;20186;-80
2022/02/12 01:49:47;;;;;;;9.10;4.70;;;-2.10;99.90;;;;;;5033536;28;20644;-84
2022/02/12 01:52:14;;;;;;;12.03;4.40;;;-2.10;99.90;;;;;;5034046;28;20163;-80
2022/02/12 01:54:41;;;;;;;11.75;4.90;;;-2.00;99.90;;;;;;5032834;28;20546;-82
2022/02/12 01:57:07;;;;;;;12.65;5.05;;;-2.00;99.90;;;;;;5033940;28;20178;-82
2022/02/12 01:59:34;;;;;;;14.15;5.30;;;-2.00;99.90;;;;;;5033445;28;20202;-80
2022/02/12 02:02:00;;;;;;;14.27;4.80;;;-2.00;99.90;;;;;;5032759;28;20240;-82
2022/02/12 02:04:26;;;;;;;8.60;4.15;;;-2.00;99.90;;;;;;5033811;28;20185;-81
2022/02/12 02:06:52;;;;;;;9.10;4.10;;;-1.90;99.90;;;;;;5033782;28;20213;-82
2022/02/12 02:09:19;;;;;;;9.17;4.80;;;-2.00;99.90;;;;;;5032799;28;20242;-84
2022/02/12 02:11:48;;;;;;;10.27;4.65;;;-2.00;99.90;;;;;;5033135;28;20293;-82
2022/02/12 02:14:15;;;;;;;11.20;4.50;;;-2.00;99.90;;;;;;5033943;28;20173;-83
2022/02/12 02:16:42;;;;;;;14.80;4.63;;;-2.00;99.90;;;;;;5032238;28;20190;-84
2022/02/12 02:19:08;;;;;;;12.50;4.38;;;-2.00;99.90;;;;;;5033241;28;20302;-81
2022/02/12 02:21:38;;;;;;;11.43;4.68;;;-2.00;99.90;;;;;;5033624;28;20182;-82
2022/02/12 02:24:06;;;;;;;9.55;3.97;;;-2.00;99.90;;;;;;5033477;28;20183;-84
2022/02/12 02:26:36;;;;;;;14.40;4.30;;;-1.90;99.90;;;;;;5033523;28;20211;-82
2022/02/12 02:29:01;;;;;;;20.15;4.90;;;-1.90;99.90;;;;;;5033118;28;20652;-82
2022/02/12 02:31:27;;;;;;;13.90;4.37;;;-1.90;99.90;;;;;;5033257;28;20228;-81
2022/02/12 02:33:53;;;;;;;7.97;4.30;;;-1.90;99.90;;;;;;5031989;28;20452;-82
2022/02/12 02:36:18;;;;;;;8.83;4.43;;;-1.80;99.90;;;;;;5033514;28;20551;-81
2022/02/12 02:38:44;;;;;;;19.57;3.90;;;-1.90;99.90;;;;;;5032832;28;20651;-80
2022/02/12 02:41:10;;;;;;;16.97;4.13;;;-1.80;99.90;;;;;;5033325;28;20182;-85
2022/02/12 02:43:37;;;;;;;9.05;3.95;;;-1.80;99.90;;;;;;5033212;28;20171;-81
2022/02/12 02:46:03;;;;;;;8.43;5.45;;;-1.80;99.90;;;;;;5033142;28;20273;-80
2022/02/12 02:48:29;;;;;;;9.50;4.40;;;-1.80;99.90;;;;;;5031952;28;20240;-81
2022/02/12 02:56:24;;;;;;;13.13;3.97;;;-1.70;99.90;;;;;;5033451;28;20254;-83
2022/02/12 02:58:54;;;;;;;13.53;3.70;;;-1.70;99.90;;;;;;5032780;28;20178;-81
2022/02/12 03:01:23;;;;;;;10.13;3.85;;;-1.70;99.90;;;;;;5033222;28;20519;-81
2022/02/12 03:03:51;;;;;;;9.48;3.90;;;-1.80;99.90;;;;;;5032998;28;20262;-83
2022/02/12 03:06:19;;;;;;;8.48;3.40;;;-1.70;99.90;;;;;;5033064;28;20187;-82
2022/02/12 03:08:45;;;;;;;6.80;3.67;;;-1.70;99.90;;;;;;5032690;28;20296;-81
2022/02/12 03:11:12;;;;;;;17.20;3.70;;;-1.70;99.90;;;;;;5032807;28;20286;-83
2022/02/12 03:13:40;;;;;;;10.32;3.72;;;-1.60;99.90;;;;;;5033055;28;20162;-80
2022/02/12 03:16:11;;;;;;;10.30;4.85;;;-1.60;99.90;;;;;;5033175;28;20206;-81
2022/02/12 03:18:38;;;;;;;11.73;4.35;;;-1.70;99.90;;;;;;5032653;28;20198;-84
2022/02/12 03:21:04;;;;;;;9.77;3.35;;;-1.60;99.90;;;;;;5033206;28;20206;-81
2022/02/12 03:23:30;;;;;;;10.00;3.53;;;-1.60;99.90;;;;;;5036848;28;20558;-82
2022/02/12 03:25:56;;;;;;;11.77;4.00;;;-1.60;99.90;;;;;;5035365;28;20431;-81
2022/02/12 03:28:21;;;;;;;8.80;4.00;;;-1.60;99.90;;;;;;5036481;28;20421;-82
2022/02/12 03:30:48;;;;;;;14.93;3.30;;;-1.60;99.90;;;;;;5035177;28;20210;-82
2022/02/12 03:33:14;;;;;;;16.55;4.28;;;-1.60;99.90;;;;;;5036839;28;20171;-83
2022/02/12 03:35:40;;;;;;;15.65;3.72;;;-1.60;99.90;;;;;;5036736;28;20259;-80
2022/02/12 03:38:16;;;;;;;12.17;4.03;;;-1.50;99.90;;;;;;5036677;28;20619;-80
2022/02/12 03:40:47;;;;;;;14.18;3.72;;;-1.50;99.90;;;;;;5036140;28;20437;-81
2022/02/12 03:43:13;;;;;;;14.18;4.10;;;-1.60;99.90;;;;;;5036517;28;20170;-80
2022/02/12 03:45:40;;;;;;;10.15;3.50;;;-1.60;99.90;;;;;;5036522;28;20178;-80
2022/02/12 03:48:07;;;;;;;12.43;4.85;;;-1.60;99.90;;;;;;5036430;28;20175;-83
2022/02/12 03:50:33;;;;;;;12.77;4.00;;;-1.60;99.90;;;;;;5035793;28;20281;-81
2022/02/12 03:53:01;;;;;;;12.02;3.60;;;-1.60;99.90;;;;;;5035011;28;20727;-82
2022/02/12 03:55:27;;;;;;;8.77;3.13;;;-1.60;99.90;;;;;;5036260;28;20182;-80
2022/02/12 03:57:53;;;;;;;12.38;3.17;;;-1.60;99.90;;;;;;5036249;28;20619;-83
2022/02/12 04:00:19;;;;;;;9.20;3.50;;;-1.60;99.90;;;;;;5035716;28;20638;-81
2022/02/12 04:02:45;;;;;;;15.18;3.33;;;-1.50;99.90;;;;;;5018544;28;20237;-81
2022/02/12 04:05:14;;;;;;;11.73;2.90;;;-1.60;99.90;;;;;;5034968;28;20174;-83
2022/02/12 04:07:41;;;;;;;19.90;5.53;;;-1.60;99.90;;;;;;5036092;28;20471;-82
2022/02/12 04:10:08;;;;;;;9.65;3.45;;;-1.60;99.90;;;;;;5035463;28;20260;-82
2022/02/12 04:12:35;;;;;;;11.85;3.40;;;-1.60;99.90;;;;;;5035960;28;20509;-82
2022/02/12 04:15:01;;;;;;;6.80;3.28;;;-1.60;99.90;;;;;;5034735;28;20564;-81
2022/02/12 04:17:26;;;;;;;11.30;3.03;;;-1.60;99.90;;;;;;5017858;28;20189;-82
2022/02/12 04:19:52;;;;;;;6.17;2.87;;;-1.70;99.90;;;;;;5035379;28;20795;-83
2022/02/12 04:22:18;;;;;;;9.33;3.30;;;-1.70;99.90;;;;;;5034685;28;20205;-83
2022/02/12 04:24:44;;;;;;;11.10;4.10;;;-1.70;99.90;;;;;;5035548;28;20796;-81
2022/02/12 04:27:09;;;;;;;16.83;3.47;;;-1.80;99.90;;;;;;5035792;28;20202;-80
2022/02/12 04:29:38;;;;;;;6.47;3.23;;;-1.80;99.90;;;;;;5035260;28;20665;-82
2022/02/12 04:32:04;;;;;;;8.93;3.50;;;-1.80;99.90;;;;;;5035522;28;20214;-81
2022/02/12 04:34:29;;;;;;;12.47;3.97;;;-1.80;99.90;;;;;;5034547;28;20170;-81
2022/02/12 04:36:56;;;;;;;21.63;3.77;;;-1.80;99.90;;;;;;5034328;28;20425;-83
2022/02/12 04:39:22;;;;;;;13.02;3.75;;;-1.80;99.90;;;;;;5035338;28;20622;-82
2022/02/12 04:41:47;;;;;;;7.70;3.60;;;-1.80;99.90;;;;;;5035408;28;20186;-80
2022/02/12 04:44:13;;;;;;;10.83;3.33;;;-1.90;99.90;;;;;;5035478;28;20414;-83
2022/02/12 04:46:39;;;;;;;7.80;3.43;;;-1.90;99.90;;;;;;5034115;28;20183;-83
2022/02/12 04:49:06;;;;;;;11.50;3.23;;;-1.90;99.90;;;;;;5033610;28;20210;-81
2022/02/12 04:51:32;;;;;;;13.68;3.88;;;-1.90;99.90;;;;;;5035097;28;20197;-84
2022/02/12 04:53:59;;;;;;;5.57;2.78;;;-2.00;99.90;;;;;;5035049;28;20194;-83
2022/02/12 04:56:25;;;;;;;10.23;2.85;;;-1.90;99.90;;;;;;5035169;28;20270;-84
2022/02/12 04:58:51;;;;;;;7.53;2.70;;;-1.90;99.90;;;;;;5034542;28;20175;-81
2022/02/12 05:01:21;;;;;;;6.82;3.30;;;-1.90;99.90;;;;;;5034980;28;20194;-84
2022/02/12 05:03:49;;;;;;;14.40;3.78;;;-1.90;99.90;;;;;;5033685;28;20191;-81
2022/02/12 05:06:15;;;;;;;6.18;2.75;;;-1.80;99.90;;;;;;5033696;28;20179;-80
2022/02/12 05:08:40;;;;;;;14.80;3.28;;;-1.90;99.90;;;;;;5033498;28;20538;-82
2022/02/12 05:11:06;;;;;;;12.43;3.60;;;-1.90;99.90;;;;;;5034801;28;20233;-80
2022/02/12 05:13:32;;;;;;;10.10;3.07;;;-1.90;99.90;;;;;;5034745;28;20186;-83
2022/02/12 05:15:57;;;;;;;10.37;3.47;;;-1.90;99.90;;;;;;5034861;28;20505;-81
2022/02/12 05:18:23;;;;;;;8.87;3.00;;;-1.90;99.90;;;;;;5033500;28;20178;-81
2022/02/12 05:20:49;;;;;;;11.10;3.23;;;-2.00;99.90;;;;;;5033122;28;20202;-82
2022/02/12 05:23:14;;;;;;;12.27;4.53;;;-1.90;99.90;;;;;;5034596;28;20189;-82
2022/02/12 05:25:40;;;;;;;15.23;4.00;;;-2.00;99.90;;;;;;5034597;28;20183;-81
2022/02/12 05:28:06;;;;;;;8.77;3.63;;;-2.00;99.90;;;;;;5034473;28;20299;-80
2022/02/12 05:30:33;;;;;;;12.40;4.63;;;-2.00;99.90;;;;;;5034025;28;20473;-80
2022/02/12 05:32:59;;;;;;;8.20;3.13;;;-2.00;99.90;;;;;;5034615;28;20413;-83
2022/02/12 05:35:25;;;;;;;10.40;3.50;;;-2.10;99.90;;;;;;5033059;28;20182;-83
2022/02/12 05:37:51;;;;;;;10.00;3.78;;;-2.10;99.90;;;;;;5034425;28;20179;-83
2022/02/12 05:40:17;;;;;;;10.23;3.60;;;-2.00;99.90;;;;;;5032631;28;20210;-82
2022/02/12 05:42:43;;;;;;;12.63;2.83;;;-2.00;99.90;;;;;;5032824;28;20429;-82
2022/02/12 05:45:09;;;;;;;8.50;3.90;;;-2.00;99.90;;;;;;5033951;28;20185;-81
2022/02/12 05:47:39;;;;;;;12.63;4.60;;;-2.00;99.90;;;;;;5034111;28;20175;-80
2022/02/12 05:50:05;;;;;;;7.65;3.25;;;-2.00;99.90;;;;;;5033763;28;20245;-83
2022/02/12 05:52:30;;;;;;;15.18;4.43;;;-2.00;99.90;;;;;;5033805;28;20232;-81
2022/02/12 05:54:56;;;;;;;12.30;3.40;;;-2.00;99.90;;;;;;5033873;28;20588;-83
2022/02/12 05:57:22;;;;;;;15.37;3.90;;;-2.00;99.90;;;;;;5032388;28;20237;-81
2022/02/12 05:59:47;;;;;;;9.73;3.53;;;-2.00;99.90;;;;;;5033502;28;20229;-80
2022/02/12 06:02:13;;;;;;;11.80;3.70;;;-1.90;99.90;;;;;;5033902;28;20171;-83
2022/02/12 06:04:38;;;;;;;8.23;2.80;;;-1.90;99.90;;;;;;5033916;28;20254;-83
2022/02/12 06:07:04;;;;;;;8.70;3.20;;;-1.90;99.90;;;;;;5032806;28;20515;-82
2022/02/12 06:09:30;;;;;;;7.47;3.23;;;-1.90;99.90;;;;;;5031802;28;20225;-81
2022/02/12 06:11:55;;;;;;;18.67;3.30;;;-2.00;99.90;;;;;;5032618;28;20210;-83
2022/02/12 06:14:21;;;;;;;7.53;3.27;;;-2.00;99.90;;;;;;5033648;28;20179;-83
2022/02/12 06:16:46;;;;;;;33.10;4.43;;;-2.00;99.90;;;;;;5033781;28;20198;-84
2022/02/12 06:19:12;;;;;;;8.13;3.43;;;-1.90;99.90;;;;;;5033159;28;20190;-82
2022/02/12 06:21:38;;;;;;;9.10;3.50;;;-2.00;99.90;;;;;;5033482;28;20178;-80
2022/02/12 06:24:04;;;;;;;11.23;4.57;;;-1.90;99.90;;;;;;5032242;28;20187;-82
2022/02/12 06:26:29;;;;;;;11.43;3.80;;;-2.00;99.90;;;;;;5033625;28;20417;-83
2022/02/12 06:28:55;;;;;;;15.37;3.40;;;-2.00;99.90;;;;;;5033190;28;20178;-81
2022/02/12 06:31:20;;;;;;;9.50;3.10;;;-2.00;99.90;;;;;;5032899;28;20213;-82
2022/02/12 06:33:46;;;;;;;13.43;3.73;;;-1.90;99.90;;;;;;5033241;28;20170;-80
2022/02/12 06:36:12;;;;;;;12.70;4.00;;;-2.00;99.90;;;;;;5033409;28;20202;-82
2022/02/12 06:38:38;;;;;;;11.52;3.15;;;-2.00;99.90;;;;;;5031811;28;20179;-82
2022/02/12 06:41:03;;;;;;;8.73;2.70;;;-2.00;99.90;;;;;;5033202;28;20234;-80
2022/02/12 06:43:29;;;;;;;18.77;4.97;;;-2.00;99.90;;;;;;5032095;28;20690;-83
2022/02/12 06:45:55;;;;;;;9.70;3.23;;;-2.10;99.90;;;;;;5031857;28;20186;-79
2022/02/12 06:48:20;;;;;;;9.63;3.50;;;-2.10;99.90;;;;;;5033155;28;20182;-83
2022/02/12 06:50:47;;;;;;;9.30;3.20;;;-2.10;99.90;;;;;;5032777;28;20253;-82
2022/02/12 06:53:13;;;;;;;12.07;3.67;;;-2.00;99.90;;;;;;5033102;28;20236;-80
2022/02/12 06:55:38;;;;;;;10.90;3.60;;;-2.00;99.90;;;;;;5032513;28;20261;-82
2022/02/12 06:58:05;;;;;;;10.67;3.70;;;-2.00;99.90;;;;;;5032929;28;20413;-82
2022/02/12 07:00:30;;;;;;;9.38;2.90;;;-2.00;99.90;;;;;;5032759;28;20218;-79
2022/02/12 07:02:57;;;;;;;12.32;3.65;;;-2.00;99.90;;;;;;5032883;28;20256;-80
2022/02/12 07:05:22;;;;;;;16.52;5.25;;;-1.90;99.90;;;;;;5033020;28;20222;-81
2022/02/12 07:07:49;;;;;;;13.73;3.70;;;-2.00;99.90;;;;;;5032906;28;20639;-83
2022/02/12 07:10:17;;;;;;;13.88;4.40;;;-1.90;99.90;;;;;;5032285;28;20555;-81
2022/02/12 07:12:43;;;;;;;6.70;4.22;;;-1.80;99.90;;;;;;5033098;28;20561;-80
2022/02/12 07:15:09;;;;;;;9.30;2.83;;;-1.80;99.90;;;;;;5033131;28;20175;-80
2022/02/12 07:17:39;;;;;;;18.95;4.70;;;-1.80;99.90;;;;;;5033146;28;20484;-83
2022/02/12 07:20:06;;;;;;;7.90;3.95;;;-1.70;99.90;;;;;;5032297;28;20199;-80
2022/02/12 07:22:32;;;;;;;12.20;3.92;;;-1.60;99.90;;;;;;5033023;28;20170;-81
2022/02/12 07:24:57;;;;;;;8.90;3.87;;;-1.60;99.90;;;;;;5032738;28;20182;-81
2022/02/12 07:27:23;;;;;;;7.63;3.37;;;-1.50;99.90;;;;;;5032999;28;20689;-83
2022/02/12 07:29:48;;;;;;;9.77;3.13;;;-1.50;99.90;;;;;;5032363;28;20199;-81
2022/02/12 07:32:14;;;;;;;11.43;5.10;;;-1.40;99.90;;;;;;5032601;28;20264;-81
2022/02/12 07:34:40;;;;;;;15.90;4.67;;;-1.40;99.90;;;;;;5031660;28;20205;-81
2022/02/12 07:37:05;;;;;;;14.60;4.17;;;-1.20;99.90;;;;;;5031468;28;20190;-83
2022/02/12 07:39:32;;;;;;;11.93;4.10;;;-1.10;99.90;;;;;;5032567;28;20195;-84
2022/02/12 07:41:57;;;;;;;15.50;5.35;;;-1.10;99.90;;;;;;5032820;28;20199;-83
2022/02/12 07:44:23;;;;;;;26.30;5.07;;;-1.00;99.90;;;;;;5032688;28;20202;-81
2022/02/12 07:46:49;;;;;;;8.03;4.30;;;-0.90;99.90;;;;;;5031568;28;20421;-81
2022/02/12 07:49:15;;;;;;;15.50;4.43;;;-0.90;99.90;;;;;;5031043;28;20651;-81
2022/02/12 07:51:40;;;;;;;14.60;3.70;;;-0.80;99.90;;;;;;5015250;28;20210;-83
2022/02/12 07:54:06;;;;;;;8.87;3.60;;;-0.70;99.90;;;;;;5032407;28;20422;-80
2022/02/12 07:56:32;;;;;;;18.27;4.00;;;-0.60;99.90;;;;;;5032441;28;20410;-82
2022/02/12 07:58:58;;;;;;;10.47;3.70;;;-0.60;99.90;;;;;;5031024;28;20186;-83
2022/02/12 08:01:23;;;;;;;11.50;4.73;;;-0.50;99.90;;;;;;5032461;28;20221;-83
2022/02/12 08:03:49;;;;;;;12.43;4.00;;;-0.50;99.90;;;;;;5032566;28;20257;-84
2022/02/12 08:08:59;;;;;;;6.15;3.17;;;-0.30;99.90;;;;;;5034089;28;20205;-80
2022/02/12 08:11:26;;;;;;;10.37;3.70;;;-0.20;99.90;;;;;;5034952;28;20206;-83
2022/02/12 08:13:52;;;;;;;7.90;2.78;;;-0.20;99.90;;;;;;5034917;28;20181;-81
2022/02/12 08:16:19;;;;;;;9.18;3.30;;;-0.10;99.90;;;;;;5035871;28;20190;-83
2022/02/12 08:18:45;;;;;;;11.00;3.15;;;-0.10;99.90;;;;;;5035337;28;20703;-81
2022/02/12 08:21:10;;;;;;;11.60;3.37;;;0.00;99.90;;;;;;5035848;28;20247;-82
2022/02/12 08:23:36;;;;;;;6.67;2.83;;;0.00;99.90;;;;;;5034710;28;20440;-81
2022/02/12 08:26:02;;;;;;;14.07;3.63;;;0.10;99.90;;;;;;5035795;28;20194;-83
2022/02/12 08:28:27;;;;;;;10.00;3.40;;;0.20;99.90;;;;;;5035873;28;20186;-82
2022/02/12 08:30:54;;;;;;;5.27;3.10;;;0.30;99.90;;;;;;5035122;28;20488;-83
2022/02/12 08:33:20;;;;;;;12.23;3.33;;;0.30;99.90;;;;;;5034611;28;20176;-84
2022/02/12 08:35:46;;;;;;;11.37;3.20;;;0.40;99.90;;;;;;5034478;28;20237;-81
2022/02/12 08:38:11;;;;;;;7.83;3.70;;;0.40;99.90;;;;;;5034549;28;20241;-80
2022/02/12 08:40:37;;;;;;;12.83;3.43;;;0.40;99.90;;;;;;5035011;28;20572;-81
2022/02/12 08:43:03;;;;;;;11.47;3.80;;;0.50;99.90;;;;;;5035352;28;20179;-81
2022/02/12 08:45:29;;;;;;;13.97;4.40;;;0.60;99.90;;;;;;5035327;28;20437;-81
2022/02/12 08:47:55;;;;;;;9.83;2.73;;;0.60;99.90;;;;;;5034069;28;20440;-81
2022/02/12 08:50:20;;;;;;;13.33;3.10;;;0.70;99.90;;;;;;5034693;28;20514;-81
2022/02/12 08:52:47;;;;;;;8.87;3.20;;;0.80;99.90;;;;;;5035308;28;20301;-81
2022/02/12 08:55:13;;;;;;;12.40;3.60;;;0.80;99.90;;;;;;5035120;28;20171;-80
2022/02/12 08:57:39;;;;;;;5.50;3.40;;;1.00;99.90;;;;;;5034987;28;20211;-80
2022/02/12 09:00:10;;;;;;;12.43;2.87;;;1.00;99.90;;;;;;5034590;28;20567;-80
2022/02/12 09:02:35;;;;;;;6.75;3.60;;;0.90;99.90;;;;;;5035166;28;20405;-81
2022/02/12 09:05:02;;;;;;;9.77;4.00;;;1.00;99.90;;;;;;5033671;28;20721;-80
2022/02/12 09:07:28;;;;;;;8.88;3.35;;;1.10;99.90;;;;;;5034878;28;20429;-80
2022/02/12 09:09:54;;;;;;;8.43;3.13;;;1.10;99.90;;;;;;5033185;28;20224;-80
2022/02/12 09:12:20;;;;;;;11.30;3.92;;;1.20;99.90;;;;;;5033725;28;20221;-81
2022/02/12 09:14:46;;;;;;;10.15;3.95;;;1.30;99.90;;;;;;5033733;28;20181;-81
2022/02/12 09:17:12;;;;;;;12.93;3.67;;;1.30;99.90;;;;;;5034717;28;20261;-81
2022/02/12 09:19:37;;;;;;;7.80;3.47;;;1.40;99.90;;;;;;5034730;28;20513;-82
2022/02/12 09:22:03;;;;;;;10.73;4.20;;;1.40;99.90;;;;;;5035870;28;20824;-81
2022/02/12 09:24:29;;;;;;;19.47;3.87;;;1.60;99.90;;;;;;5035502;28;20212;-81
2022/02/12 09:26:54;;;;;;;5.30;2.90;;;1.60;99.90;;;;;;5035519;28;20953;-81
2022/02/12 09:29:20;;;;;;;12.23;3.27;;;1.70;99.90;;;;;;5034821;28;20194;-80
2022/02/12 09:31:46;;;;;;;10.97;3.90;;;1.90;99.90;;;;;;5034976;28;20201;-80
2022/02/12 09:34:11;;;;;;;10.00;4.97;;;2.10;99.90;;;;;;5034960;28;20236;-82
2022/02/12 09:36:38;;;;;;;5.53;3.53;;;2.10;99.90;;;;;;5034406;28;20592;-80
2022/02/12 09:39:04;;;;;;;16.90;3.42;;;2.30;99.90;;;;;;5033897;28;20607;-81
2022/02/12 09:41:29;;;;;;;8.80;3.20;;;2.50;99.90;;;;;;5034374;28;20187;-80
2022/02/12 09:43:56;;;;;;;9.17;3.07;;;2.60;99.90;;;;;;5034176;28;20201;-81
2022/02/12 09:46:27;;;;;;;9.57;3.85;;;2.70;99.90;;;;;;5034353;28;20175;-80
2022/02/12 09:48:54;;;;;;;11.02;3.60;;;2.90;99.90;;;;;;5032580;28;20532;-82
2022/02/12 09:51:22;;;;;;;7.70;3.15;;;3.10;99.90;;;;;;5016379;28;20293;-82
2022/02/12 09:53:48;;;;;;;11.02;3.17;;;3.30;99.90;;;;;;5034057;28;20177;-81
2022/02/12 09:56:14;;;;;;;10.10;3.00;;;3.40;99.90;;;;;;5034042;28;20167;-80
2022/02/12 09:58:39;;;;;;;12.67;4.03;;;3.30;99.90;;;;;;5032598;28;20203;-81
2022/02/12 10:01:07;;;;;;;7.30;3.53;;;3.30;99.90;;;;;;5033811;28;20206;-82
2022/02/12 10:03:33;;;;;;;11.90;3.20;;;3.40;99.90;;;;;;5016156;28;20194;-81
2022/02/12 10:05:59;;;;;;;11.52;3.28;;;3.70;99.90;;;;;;5032808;28;20546;-80
2022/02/12 10:08:25;;;;;;;11.13;3.55;;;3.70;99.90;;;;;;5032126;28;20184;-81
2022/02/12 10:10:52;;;;;;;17.20;4.57;;;3.90;99.90;;;;;;5033223;28;20210;-80
2022/02/12 10:13:29;;;;;;;8.18;3.08;;;4.00;99.90;;;;;;5032332;28;20405;-80
2022/02/12 10:15:57;;;;;;;7.18;3.67;;;4.20;99.90;;;;;;5033715;28;20661;-79
2022/02/12 10:18:24;;;;;;;9.77;3.75;;;4.60;99.90;;;;;;5033579;28;20594;-82
2022/02/12 10:20:51;;;;;;;9.40;3.40;;;4.50;99.90;;;;;;5033430;28;20206;-80
2022/02/12 10:23:27;;;;;;;12.60;4.55;;;4.60;99.90;;;;;;5032307;28;20544;-82
2022/02/12 10:26:02;;;;;;;7.78;3.03;;;4.80;99.90;;;;;;5033592;28;20179;-80
2022/02/12 10:28:29;;;;;;;14.48;3.25;;;4.90;99.90;;;;;;5033559;28;20512;-80
2022/02/12 10:30:55;;;;;;;4.32;3.17;;;4.90;99.90;;;;;;5032331;28;20222;-81
2022/02/12 10:33:23;;;;;;;12.13;3.70;;;4.90;99.90;;;;;;5033773;28;20193;-79
2022/02/12 10:36:00;;;;;;;9.77;3.92;;;5.00;99.90;;;;;;5033654;28;20179;-81
2022/02/12 10:38:29;;;;;;;7.95;2.75;;;5.10;99.90;;;;;;5033531;28;20579;-82
2022/02/12 10:41:08;;;;;;;13.05;4.78;;;5.40;99.90;;;;;;5031811;28;20204;-80
2022/02/12 10:43:34;;;;;;;8.38;3.45;;;5.50;99.90;;;;;;5033056;28;20542;-80
2022/02/12 10:46:01;;;;;;;9.38;4.88;;;5.80;99.90;;;;;;5032092;28;20210;-81
2022/02/12 10:48:30;;;;;;;13.23;3.88;;;5.60;99.90;;;;;;5033123;28;20174;-80
2022/02/12 10:51:00;;;;;;;13.27;4.05;;;5.50;99.90;;;;;;5032863;28;20207;-81
2022/02/12 10:53:25;;;;;;;14.35;4.90;;;5.70;99.90;;;;;;5031893;28;20183;-80
2022/02/12 10:56:01;;;;;;;12.30;3.70;;;5.90;99.90;;;;;;5033164;28;20216;-80
2022/02/12 10:58:27;;;;;;;10.95;4.55;;;6.00;99.90;;;;;;5033130;28;20766;-79
2022/02/12 11:00:54;;;;;;;14.00;5.38;;;6.00;99.90;;;;;;5032856;28;20345;-80
2022/02/12 11:03:21;;;;;;;14.05;5.25;;;6.10;99.90;;;;;;5033107;28;20180;-80
2022/02/12 11:05:52;;;;;;;15.25;6.22;;;6.40;99.90;;;;;;5031623;28;20547;-81
2022/02/12 11:08:21;;;;;;;6.90;3.42;;;6.50;99.90;;;;;;5032886;28;20179;-80
2022/02/12 11:10:47;;;;;;;11.85;3.55;;;6.60;99.90;;;;;;5031315;28;20588;-80
2022/02/12 11:13:14;;;;;;;7.30;3.20;;;6.50;99.90;;;;;;5033042;28;20180;-80
2022/02/12 11:15:40;;;;;;;9.52;3.63;;;6.60;99.90;;;;;;5032855;28;20427;-80
2022/02/12 11:18:10;;;;;;;9.35;3.50;;;6.40;99.90;;;;;;5015173;28;20224;-81
2022/02/12 11:20:38;;;;;;;12.23;4.22;;;6.70;99.90;;;;;;5032595;28;20603;-80
2022/02/12 11:23:19;;;;;;;11.02;2.67;;;7.20;99.90;;;;;;5033053;28;20187;-79
2022/02/12 11:25:49;;;;;;;10.32;4.03;;;7.20;99.90;;;;;;5033038;28;20178;-81
2022/02/12 11:28:17;;;;;;;14.52;4.65;;;7.40;99.90;;;;;;5032779;28;20241;-79
2022/02/12 11:30:44;;;;;;;9.50;4.57;;;7.60;99.90;;;;;;5032296;28;20289;-79
2022/02/12 11:33:19;;;;;;;7.03;2.80;;;7.70;99.90;;;;;;5031591;28;20175;-80
2022/02/12 11:36:10;;;;;;;5.93;2.83;;;8.20;99.90;;;;;;5032948;28;20244;-80
2022/02/12 11:38:38;;;;;;;6.13;2.50;;;8.30;99.90;;;;;;5032392;28;20187;-80
2022/02/12 11:41:22;;;;;;;8.37;2.73;;;8.20;99.90;;;;;;5032590;28;20480;-80
2022/02/12 11:43:49;;;;;;;6.55;2.70;;;8.00;99.90;;;;;;5035915;28;20420;-80
2022/02/12 11:46:34;;;;;;;7.90;2.93;;;8.10;99.90;;;;;;5036204;28;20191;-80
2022/02/12 11:49:29;;;;;;;8.33;3.90;;;8.60;99.90;;;;;;5036026;28;20402;-80
2022/02/12 11:51:56;;;;;;;6.73;2.90;;;9.00;99.90;;;;;;5036321;28;20462;-80
2022/02/12 11:54:47;;;;;;;5.53;2.77;;;9.30;99.90;;;;;;5036226;28;20739;-80
2022/02/12 11:57:27;;;;;;;8.13;2.37;;;9.20;99.90;;;;;;5036315;28;20432;-80
2022/02/12 12:00:03;;;;;;;7.57;3.10;;;9.40;99.90;;;;;;5035784;28;20835;-81
2022/02/12 12:02:45;;;;;;;6.10;2.40;;;9.90;99.90;;;;;;5047226;28;20455;-79
2022/02/12 12:05:22;;;;;;;5.88;2.15;;;10.00;99.90;;;;;;5041876;28;20417;-80
2022/02/12 12:08:00;;;;;;;6.57;2.80;;;9.80;99.90;;;;;;5034723;28;20272;-79
2022/02/12 12:10:30;;;;;;;8.10;2.53;;;9.90;99.90;;;;;;5035168;28;20213;-79
2022/02/12 12:12:59;;;;;;;8.63;2.43;;;10.20;99.90;;;;;;5035659;28;20471;-79
2022/02/12 12:15:26;;;;;;;5.00;2.42;;;10.10;99.90;;;;;;5035508;28;20871;-79
2022/02/12 12:18:02;;;;;;;3.27;1.77;;;10.10;99.90;;;;;;5036105;28;20269;-79
2022/02/12 12:20:39;;;;;;;6.35;2.13;;;10.10;99.90;;;;;;5035240;28;20504;-80
2022/02/12 12:23:12;;;;;;;7.05;2.40;;;10.10;99.90;;;;;;5035858;28;20178;-79
2022/02/12 12:26:06;;;;;;;5.22;2.05;;;10.50;99.90;;;;;;5035799;28;20201;-80
2022/02/12 12:28:34;;;;;;;5.55;2.45;;;10.50;99.90;;;;;;5035512;28;20255;-79
2022/02/12 12:31:07;;;;;;;14.68;3.00;;;10.30;99.90;;;;;;5035514;28;20211;-80
2022/02/12 12:33:38;;;;;;;8.63;2.53;;;10.30;99.90;;;;;;5035575;28;20663;-80
2022/02/12 12:36:08;;;;;;;5.40;2.70;;;10.20;99.90;;;;;;5034127;28;20723;-80
2022/02/12 12:38:40;;;;;;;5.70;2.10;;;10.60;99.90;;;;;;5035570;28;20462;-80
2022/02/12 12:41:31;;;;;;;8.38;3.35;;;10.50;99.90;;;;;;5035668;28;20199;-80
2022/02/12 12:44:08;;;;;;;5.15;2.30;;;10.10;99.90;;;;;;5034274;28;20186;-80
2022/02/12 12:46:35;;;;;;;8.05;2.55;;;10.60;99.90;;;;;;5035360;28;20520;-80
2022/02/12 12:49:00;;;;;;;8.50;2.60;;;10.10;99.90;;;;;;5035106;28;20182;-80
2022/02/12 12:51:26;;;;;;;11.57;2.90;;;10.70;99.90;;;;;;5035308;28;20212;-80